Time;durP1;ratioP1;P1;durP2;ratioP2;P2;SDS_P1;SDS_P2;PMS_P1;PMS_P2;Temp;Humidity;BMP_temperature;BMP_pressure;BME280_temperature;BME280_humidity;BME280_pressure;Samples;Min_cycle;Max_cycle;Signal;HPM_P1;HPM_P2
2022/09/28 00:00:15;;;;;;;;;;;;;;;;;;2132235;27;19930;-45
2022/09/28 00:01:16;;;;;;;;;;;;;;;;;;2132218;27;19931;-44
2022/09/28 00:02:16;;;;;;;;;;;;;;;;;;2132163;27;19923;-46
2022/09/28 00:03:17;;;;;;;;;;;;;;;;;;2132308;27;20291;-45
2022/09/28 00:04:19;;;;;;;;;;;;;;;;;;2132073;27;19923;-45
2022/09/28 00:05:20;;;;;;;;;;;;;;;;;;2132165;27;19923;-45
2022/09/28 00:06:21;;;;;;;;;;;;;;;;;;2132031;27;20317;-46
2022/09/28 00:07:22;;;;;;;;;;;;;;;;;;2132135;27;19930;-45
2022/09/28 00:08:22;;;;;;;;;;;;;;;;;;2132254;27;19923;-46
2022/09/28 00:09:23;;;;;;;;;;;;;;;;;;2132130;27;20328;-44
2022/09/28 00:10:24;;;;;;;;;;;;;;;;;;2132134;27;19923;-45
2022/09/28 00:11:27;;;;;;;;;;;;;;;;;;2132041;27;19923;-45
2022/09/28 00:12:28;;;;;;;;;;;;;;;;;;2132154;27;19927;-46
2022/09/28 00:13:30;;;;;;;;;;;;;;;;;;2132044;27;19941;-48
2022/09/28 00:14:31;;;;;;;;;;;;;;;;;;2132282;27;19923;-44
2022/09/28 00:15:32;;;;;;;;;;;;;;;;;;2132445;27;19923;-46
2022/09/28 00:16:32;;;;;;;;;;;;;;;;;;2132127;27;19926;-45
2022/09/28 00:17:35;;;;;;;;;;;;;;;;;;2132019;27;19923;-44
2022/09/28 00:18:36;;;;;;;;;;;;;;;;;;2132020;27;19996;-45
2022/09/28 00:19:37;;;;;;;;;;;;;;;;;;2132045;27;19924;-45
2022/09/28 00:20:38;;;;;;;;;;;;;;;;;;2132025;27;19923;-45
2022/09/28 00:21:39;;;;;;;;;;;;;;;;;;2131938;27;20017;-46
2022/09/28 00:22:40;;;;;;;;;;;;;;;;;;2132086;27;19957;-44
2022/09/28 00:24:56;;;;;;;;;;;;;;;;;;2130006;27;20280;-44
2022/09/28 00:25:57;;;;;;;;;;;;;;;;;;2132110;27;19927;-44
2022/09/28 00:27:00;;;;;;;;;;;;;;;;;;2132014;27;20314;-44
2022/09/28 00:28:00;;;;;;;;;;;;;;;;;;2132128;27;19922;-45
2022/09/28 00:29:01;;;;;;;;;;;;;;;;;;2132056;27;20014;-45
2022/09/28 00:30:03;;;;;;;;;;;;;;;;;;2132139;27;19923;-44
2022/09/28 00:31:03;;;;;;;;;;;;;;;;;;2131950;27;19946;-45
2022/09/28 00:32:04;;;;;;;;;;;;;;;;;;2131547;27;19930;-42
2022/09/28 00:33:05;;;;;;;;;;;;;;;;;;2132274;27;20265;-42
2022/09/28 00:34:06;;;;;;;;;;;;;;;;;;2132012;27;19923;-42
2022/09/28 00:35:07;;;;;;;;;;;;;;;;;;2132088;27;19923;-42
2022/09/28 00:36:07;;;;;;;;;;;;;;;;;;2131975;27;20420;-42
2022/09/28 00:37:08;;;;;;;;;;;;;;;;;;2131874;27;20395;-42
2022/09/28 00:38:09;;;;;;;;;;;;;;;;;;2131842;27;19924;-42
2022/09/28 00:39:10;;;;;;;;;;;;;;;;;;2132110;27;19923;-42
2022/09/28 00:40:11;;;;;;;;;;;;;;;;;;2131934;27;19946;-42
2022/09/28 00:41:12;;;;;;;;;;;;;;;;;;2131884;27;20014;-42
2022/09/28 00:42:13;;;;;;;;;;;;;;;;;;2131983;27;19923;-42
2022/09/28 00:43:14;;;;;;;;;;;;;;;;;;2131678;27;19923;-42
2022/09/28 00:44:15;;;;;;;;;;;;;;;;;;2131953;27;20029;-42
2022/09/28 00:45:17;;;;;;;;;;;;;;;;;;2131969;27;19923;-42
2022/09/28 00:46:17;;;;;;;;;;;;;;;;;;2131972;27;19927;-42
2022/09/28 00:47:18;;;;;;;;;;;;;;;;;;2131819;27;19964;-42
2022/09/28 00:48:19;;;;;;;;;;;;;;;;;;2131919;27;19923;-42
2022/09/28 00:49:20;;;;;;;;;;;;;;;;;;2131875;27;19923;-42
2022/09/28 00:50:21;;;;;;;;;;;;;;;;;;2131972;27;19933;-42
2022/09/28 00:51:21;;;;;;;;;;;;;;;;;;2131936;27;19923;-42
2022/09/28 00:52:22;;;;;;;;;;;;;;;;;;2131877;27;19923;-42
2022/09/28 00:53:23;;;;;;;;;;;;;;;;;;2131877;27;19923;-42
2022/09/28 00:54:24;;;;;;;;;;;;;;;;;;2131914;27;20426;-42
2022/09/28 00:55:25;;;;;;;;;;;;;;;;;;2131898;27;19930;-42
2022/09/28 00:56:26;;;;;;;;;;;;;;;;;;2131861;27;19996;-42
2022/09/28 00:57:27;;;;;;;;;;;;;;;;;;2131780;27;20018;-42
2022/09/28 00:58:28;;;;;;;;;;;;;;;;;;2131894;27;19977;-42
2022/09/28 00:59:28;;;;;;;;;;;;;;;;;;2132173;27;20364;-42
2022/09/28 01:00:29;;;;;;;;;;;;;;;;;;2132008;27;19923;-42
2022/09/28 01:01:30;;;;;;;;;;;;;;;;;;2131828;27;19924;-42
2022/09/28 01:02:31;;;;;;;;;;;;;;;;;;2131830;27;19924;-42
2022/09/28 01:03:32;;;;;;;;;;;;;;;;;;2131834;27;19927;-42
2022/09/28 01:04:33;;;;;;;;;;;;;;;;;;2131803;27;19974;-42
2022/09/28 01:05:33;;;;;;;;;;;;;;;;;;2131846;27;19923;-42
2022/09/28 01:06:34;;;;;;;;;;;;;;;;;;2131742;27;19966;-42
2022/09/28 01:07:35;;;;;;;;;;;;;;;;;;2131763;27;19924;-42
2022/09/28 01:08:36;;;;;;;;;;;;;;;;;;2131839;27;19923;-42
2022/09/28 01:09:37;;;;;;;;;;;;;;;;;;2131744;27;19923;-42
2022/09/28 01:10:38;;;;;;;;;;;;;;;;;;2131869;27;19927;-42
2022/09/28 01:11:38;;;;;;;;;;;;;;;;;;2131671;27;19923;-42
2022/09/28 01:12:39;;;;;;;;;;;;;;;;;;2131929;27;20014;-45
2022/09/28 01:13:40;;;;;;;;;;;;;;;;;;2131735;27;19924;-48
2022/09/28 01:14:41;;;;;;;;;;;;;;;;;;2131693;27;19923;-45
2022/09/28 01:15:42;;;;;;;;;;;;;;;;;;2131745;27;19923;-45
2022/09/28 01:16:43;;;;;;;;;;;;;;;;;;2131614;27;19962;-45
2022/09/28 01:17:43;;;;;;;;;;;;;;;;;;2131791;27;19930;-44
2022/09/28 01:18:44;;;;;;;;;;;;;;;;;;2131738;27;20317;-45
2022/09/28 01:19:45;;;;;;;;;;;;;;;;;;2131868;27;19923;-45
2022/09/28 01:20:46;;;;;;;;;;;;;;;;;;2131790;27;19993;-45
2022/09/28 01:21:47;;;;;;;;;;;;;;;;;;2131681;27;19931;-45
2022/09/28 01:22:48;;;;;;;;;;;;;;;;;;2131826;27;20021;-45
2022/09/28 01:23:49;;;;;;;;;;;;;;;;;;2131695;27;19923;-45
2022/09/28 01:24:50;;;;;;;;;;;;;;;;;;2131677;27;19967;-44
2022/09/28 01:25:50;;;;;;;;;;;;;;;;;;2131671;27;19923;-44
2022/09/28 01:26:51;;;;;;;;;;;;;;;;;;2131599;27;19923;-45
2022/09/28 01:27:52;;;;;;;;;;;;;;;;;;2131768;27;19931;-45
2022/09/28 01:28:53;;;;;;;;;;;;;;;;;;2131805;27;20356;-45
2022/09/28 01:29:54;;;;;;;;;;;;;;;;;;2131779;27;19923;-45
2022/09/28 01:30:55;;;;;;;;;;;;;;;;;;2131729;27;20145;-45
2022/09/28 01:31:56;;;;;;;;;;;;;;;;;;2131747;27;19923;-45
2022/09/28 01:32:57;;;;;;;;;;;;;;;;;;2131625;27;19971;-45
2022/09/28 01:33:57;;;;;;;;;;;;;;;;;;2131994;27;19948;-44
2022/09/28 01:34:58;;;;;;;;;;;;;;;;;;2131629;27;20067;-45
2022/09/28 01:35:59;;;;;;;;;;;;;;;;;;2131695;27;20398;-45
2022/09/28 01:37:00;;;;;;;;;;;;;;;;;;2133057;27;19969;-46
2022/09/28 01:38:01;;;;;;;;;;;;;;;;;;2133181;27;19974;-45
2022/09/28 01:39:02;;;;;;;;;;;;;;;;;;2132891;27;19966;-45
2022/09/28 01:40:02;;;;;;;;;;;;;;;;;;2133167;27;19923;-45
2022/09/28 01:41:03;;;;;;;;;;;;;;;;;;2133086;27;19930;-44
2022/09/28 01:42:04;;;;;;;;;;;;;;;;;;2133117;27;19934;-44
2022/09/28 01:43:05;;;;;;;;;;;;;;;;;;2133232;27;19923;-45
2022/09/28 01:44:07;;;;;;;;;;;;;;;;;;2133062;27;20013;-45
2022/09/28 01:45:08;;;;;;;;;;;;;;;;;;2133161;27;20061;-44
2022/09/28 01:46:09;;;;;;;;;;;;;;;;;;2133043;27;19923;-44
2022/09/28 01:47:10;;;;;;;;;;;;;;;;;;2132990;27;19975;-44
2022/09/28 01:48:11;;;;;;;;;;;;;;;;;;2133090;27;19923;-44
2022/09/28 01:49:12;;;;;;;;;;;;;;;;;;2133228;27;20026;-46
2022/09/28 01:50:12;;;;;;;;;;;;;;;;;;2133139;27;19923;-44
2022/09/28 01:51:13;;;;;;;;;;;;;;;;;;2133163;27;19923;-45
2022/09/28 01:52:14;;;;;;;;;;;;;;;;;;2133101;27;19969;-47
2022/09/28 01:53:15;;;;;;;;;;;;;;;;;;2133018;27;20401;-45
2022/09/28 01:54:16;;;;;;;;;;;;;;;;;;2133085;27;20009;-44
2022/09/28 01:55:17;;;;;;;;;;;;;;;;;;2133043;27;19962;-45
2022/09/28 01:56:17;;;;;;;;;;;;;;;;;;2132975;27;19933;-45
2022/09/28 01:57:18;;;;;;;;;;;;;;;;;;2132965;27;19923;-46
2022/09/28 01:58:19;;;;;;;;;;;;;;;;;;2132960;27;19949;-47
2022/09/28 01:59:20;;;;;;;;;;;;;;;;;;2133048;27;19930;-45
2022/09/28 02:00:20;;;;;;;;;;;;;;;;;;2133029;27;19967;-45
2022/09/28 02:01:21;;;;;;;;;;;;;;;;;;2133040;27;19923;-46
2022/09/28 02:02:22;;;;;;;;;;;;;;;;;;2132948;27;19930;-44
2022/09/28 02:03:23;;;;;;;;;;;;;;;;;;2133128;27;20029;-45
2022/09/28 02:04:24;;;;;;;;;;;;;;;;;;2133154;27;19966;-45
2022/09/28 02:05:25;;;;;;;;;;;;;;;;;;2133127;27;19930;-42
2022/09/28 02:06:26;;;;;;;;;;;;;;;;;;2132920;27;19927;-42
2022/09/28 02:07:27;;;;;;;;;;;;;;;;;;2133101;27;19924;-42
2022/09/28 02:08:27;;;;;;;;;;;;;;;;;;2132956;27;19927;-42
2022/09/28 02:09:28;;;;;;;;;;;;;;;;;;2132980;27;19972;-42
2022/09/28 02:10:33;;;;;;;;;;;;;;;;;;2132933;27;20462;-42
2022/09/28 02:11:36;;;;;;;;;;;;;;;;;;2132837;27;19927;-42
2022/09/28 02:12:36;;;;;;;;;;;;;;;;;;2133060;27;19923;-42
2022/09/28 02:13:37;;;;;;;;;;;;;;;;;;2133029;27;20402;-42
2022/09/28 02:14:38;;;;;;;;;;;;;;;;;;2133035;27;19934;-42
2022/09/28 02:15:39;;;;;;;;;;;;;;;;;;2132796;27;19974;-42
2022/09/28 02:16:40;;;;;;;;;;;;;;;;;;2132810;27;19962;-42
2022/09/28 02:17:41;;;;;;;;;;;;;;;;;;2132800;27;19954;-42
2022/09/28 02:18:41;;;;;;;;;;;;;;;;;;2133011;27;19946;-42
2022/09/28 02:19:42;;;;;;;;;;;;;;;;;;2132807;27;19923;-42
2022/09/28 02:20:43;;;;;;;;;;;;;;;;;;2132957;27;19923;-42
2022/09/28 02:21:44;;;;;;;;;;;;;;;;;;2132932;27;19923;-44
2022/09/28 02:22:45;;;;;;;;;;;;;;;;;;2132970;27;19930;-42
2022/09/28 02:23:46;;;;;;;;;;;;;;;;;;2132913;27;20025;-42
2022/09/28 02:24:46;;;;;;;;;;;;;;;;;;2132867;27;19930;-42
2022/09/28 02:25:48;;;;;;;;;;;;;;;;;;2132784;27;19945;-42
2022/09/28 02:26:49;;;;;;;;;;;;;;;;;;2132627;27;20339;-42
2022/09/28 02:27:50;;;;;;;;;;;;;;;;;;2132908;27;19923;-42
2022/09/28 02:28:51;;;;;;;;;;;;;;;;;;2132766;27;19923;-42
2022/09/28 02:29:52;;;;;;;;;;;;;;;;;;2132810;27;19954;-42
2022/09/28 02:30:52;;;;;;;;;;;;;;;;;;2132948;27;19991;-43
2022/09/28 02:31:53;;;;;;;;;;;;;;;;;;2132809;27;19923;-42
2022/09/28 02:32:54;;;;;;;;;;;;;;;;;;2132849;27;19954;-42
2022/09/28 02:33:55;;;;;;;;;;;;;;;;;;2132906;27;20017;-43
2022/09/28 02:34:55;;;;;;;;;;;;;;;;;;2132907;27;19924;-42
2022/09/28 02:35:56;;;;;;;;;;;;;;;;;;2132522;27;19963;-42
2022/09/28 02:36:57;;;;;;;;;;;;;;;;;;2132848;27;19923;-42
2022/09/28 02:37:58;;;;;;;;;;;;;;;;;;2132661;27;20428;-42
2022/09/28 02:39:01;;;;;;;;;;;;;;;;;;2132794;27;19923;-42
2022/09/28 02:40:02;;;;;;;;;;;;;;;;;;2132721;27;19923;-42
2022/09/28 02:41:03;;;;;;;;;;;;;;;;;;2132719;27;20287;-42
2022/09/28 02:42:04;;;;;;;;;;;;;;;;;;2132616;27;19926;-42
2022/09/28 02:43:05;;;;;;;;;;;;;;;;;;2132885;27;20364;-43
2022/09/28 02:44:06;;;;;;;;;;;;;;;;;;2132671;27;19923;-42
2022/09/28 02:45:07;;;;;;;;;;;;;;;;;;2132742;27;20414;-42
2022/09/28 02:46:08;;;;;;;;;;;;;;;;;;2132849;27;20427;-42
2022/09/28 02:47:08;;;;;;;;;;;;;;;;;;2132794;27;19923;-42
2022/09/28 02:48:09;;;;;;;;;;;;;;;;;;2131676;27;19923;-42
2022/09/28 02:49:10;;;;;;;;;;;;;;;;;;2132728;27;19923;-42
2022/09/28 02:50:22;;;;;;;;;;;;;;;;;;2132724;27;20025;-42
2022/09/28 02:51:22;;;;;;;;;;;;;;;;;;2132593;27;19966;-42
2022/09/28 02:52:23;;;;;;;;;;;;;;;;;;2132682;27;19930;-42
2022/09/28 02:53:24;;;;;;;;;;;;;;;;;;2132603;27;19923;-43
2022/09/28 02:54:25;;;;;;;;;;;;;;;;;;2132679;27;19944;-42
2022/09/28 02:55:26;;;;;;;;;;;;;;;;;;2132598;27;19967;-42
2022/09/28 02:56:27;;;;;;;;;;;;;;;;;;2132659;27;19972;-42
2022/09/28 02:57:27;;;;;;;;;;;;;;;;;;2132566;27;19930;-42
2022/09/28 02:58:29;;;;;;;;;;;;;;;;;;2132600;27;19973;-42
2022/09/28 02:59:30;;;;;;;;;;;;;;;;;;2132939;27;19923;-42
2022/09/28 03:00:30;;;;;;;;;;;;;;;;;;2132590;27;20362;-42
2022/09/28 03:01:31;;;;;;;;;;;;;;;;;;2132587;27;19923;-42
2022/09/28 03:02:32;;;;;;;;;;;;;;;;;;2132544;27;19922;-42
2022/09/28 03:03:33;;;;;;;;;;;;;;;;;;2132514;27;19992;-42
2022/09/28 03:04:34;;;;;;;;;;;;;;;;;;2132584;27;19923;-42
2022/09/28 03:05:34;;;;;;;;;;;;;;;;;;2132817;27;19923;-42
2022/09/28 03:06:35;;;;;;;;;;;;;;;;;;2132644;27;19923;-42
2022/09/28 03:07:36;;;;;;;;;;;;;;;;;;2132564;27;19971;-42
2022/09/28 03:08:37;;;;;;;;;;;;;;;;;;2132519;27;19923;-42
2022/09/28 03:09:38;;;;;;;;;;;;;;;;;;2132550;27;20080;-43
2022/09/28 03:10:39;;;;;;;;;;;;;;;;;;2132551;27;20026;-42
2022/09/28 03:11:39;;;;;;;;;;;;;;;;;;2132277;27;19927;-43
2022/09/28 03:12:40;;;;;;;;;;;;;;;;;;2132509;27;19930;-42
2022/09/28 03:13:41;;;;;;;;;;;;;;;;;;2132552;27;19930;-42
2022/09/28 03:14:42;;;;;;;;;;;;;;;;;;2132508;27;19930;-42
2022/09/28 03:15:43;;;;;;;;;;;;;;;;;;2132455;27;19966;-42
2022/09/28 03:16:48;;;;;;;;;;;;;;;;;;2132590;27;19930;-42
2022/09/28 03:17:49;;;;;;;;;;;;;;;;;;2132402;27;19927;-42
2022/09/28 03:18:50;;;;;;;;;;;;;;;;;;2132515;27;20066;-42
2022/09/28 03:19:51;;;;;;;;;;;;;;;;;;2132455;27;20004;-42
2022/09/28 03:20:52;;;;;;;;;;;;;;;;;;2132425;27;19954;-42
2022/09/28 03:21:54;;;;;;;;;;;;;;;;;;2132570;27;20392;-42
2022/09/28 03:22:55;;;;;;;;;;;;;;;;;;2132390;27;19923;-43
2022/09/28 03:24:15;;;;;;;;;;;;;;;;;;2132397;27;19923;-42
2022/09/28 03:25:16;;;;;;;;;;;;;;;;;;2132435;27;20006;-42
2022/09/28 03:26:18;;;;;;;;;;;;;;;;;;2132370;27;20456;-42
2022/09/28 03:27:19;;;;;;;;;;;;;;;;;;2132401;27;19950;-42
2022/09/28 03:28:20;;;;;;;;;;;;;;;;;;2132441;27;20383;-42
2022/09/28 03:29:21;;;;;;;;;;;;;;;;;;2132442;27;20426;-42
2022/09/28 03:30:22;;;;;;;;;;;;;;;;;;2132333;27;19923;-42
2022/09/28 03:31:23;;;;;;;;;;;;;;;;;;2132456;27;19923;-42
2022/09/28 03:32:24;;;;;;;;;;;;;;;;;;2132318;27;19923;-42
2022/09/28 03:33:25;;;;;;;;;;;;;;;;;;2132398;27;20287;-42
2022/09/28 03:34:25;;;;;;;;;;;;;;;;;;2132553;27;19923;-42
2022/09/28 03:35:26;;;;;;;;;;;;;;;;;;2132677;27;19998;-45
2022/09/28 03:36:27;;;;;;;;;;;;;;;;;;2132502;27;20418;-46
2022/09/28 03:37:28;;;;;;;;;;;;;;;;;;2132393;27;20049;-44
2022/09/28 03:38:29;;;;;;;;;;;;;;;;;;2132407;27;20034;-42
2022/09/28 03:39:30;;;;;;;;;;;;;;;;;;2132456;27;19930;-42
2022/09/28 03:40:30;;;;;;;;;;;;;;;;;;2132288;27;19923;-42
2022/09/28 03:41:31;;;;;;;;;;;;;;;;;;2132574;27;19923;-42
2022/09/28 03:42:32;;;;;;;;;;;;;;;;;;2132484;27;19924;-42
2022/09/28 03:43:33;;;;;;;;;;;;;;;;;;2132676;27;19923;-42
2022/09/28 03:44:34;;;;;;;;;;;;;;;;;;2132347;27;20475;-42
2022/09/28 03:45:35;;;;;;;;;;;;;;;;;;2132275;27;20005;-42
2022/09/28 03:46:36;;;;;;;;;;;;;;;;;;2132357;27;19923;-42
2022/09/28 03:47:36;;;;;;;;;;;;;;;;;;2132536;27;19923;-42
2022/09/28 03:48:37;;;;;;;;;;;;;;;;;;2132304;27;20295;-42
2022/09/28 03:49:38;;;;;;;;;;;;;;;;;;2132343;27;19931;-42
2022/09/28 03:50:39;;;;;;;;;;;;;;;;;;2132225;27;19923;-42
2022/09/28 03:51:39;;;;;;;;;;;;;;;;;;2132186;27;19924;-43
2022/09/28 03:52:40;;;;;;;;;;;;;;;;;;2132385;27;19934;-42
2022/09/28 03:53:41;;;;;;;;;;;;;;;;;;2132241;27;19991;-43
2022/09/28 03:54:42;;;;;;;;;;;;;;;;;;2132236;27;20021;-42
2022/09/28 03:55:49;;;;;;;;;;;;;;;;;;2132244;27;20387;-42
2022/09/28 03:56:51;;;;;;;;;;;;;;;;;;2132194;27;19930;-42
2022/09/28 03:57:51;;;;;;;;;;;;;;;;;;2132253;27;19930;-42
2022/09/28 03:58:52;;;;;;;;;;;;;;;;;;2132102;27;19930;-42
2022/09/28 03:59:53;;;;;;;;;;;;;;;;;;2132259;27;20326;-42
2022/09/28 04:00:54;;;;;;;;;;;;;;;;;;2132258;27;20372;-42
2022/09/28 04:01:54;;;;;;;;;;;;;;;;;;2132125;27;20001;-42
2022/09/28 04:02:55;;;;;;;;;;;;;;;;;;2132484;27;19923;-42
2022/09/28 04:03:56;;;;;;;;;;;;;;;;;;2132322;27;19924;-42
2022/09/28 04:04:57;;;;;;;;;;;;;;;;;;2132207;27;19923;-43
2022/09/28 04:05:58;;;;;;;;;;;;;;;;;;2132143;27;19981;-42
2022/09/28 04:06:59;;;;;;;;;;;;;;;;;;2132466;27;20023;-45
2022/09/28 04:08:00;;;;;;;;;;;;;;;;;;2132159;27;19934;-45
2022/09/28 04:09:00;;;;;;;;;;;;;;;;;;2132306;27;20390;-45
2022/09/28 04:10:01;;;;;;;;;;;;;;;;;;2132164;27;20056;-46
2022/09/28 04:11:02;;;;;;;;;;;;;;;;;;2131994;27;20275;-46
2022/09/28 04:12:03;;;;;;;;;;;;;;;;;;2132016;27;19934;-46
2022/09/28 04:13:04;;;;;;;;;;;;;;;;;;2132226;27;19923;-46
2022/09/28 04:14:05;;;;;;;;;;;;;;;;;;2132232;27;19923;-45
2022/09/28 04:15:06;;;;;;;;;;;;;;;;;;2132278;27;20287;-45
2022/09/28 04:16:07;;;;;;;;;;;;;;;;;;2132061;27;20332;-45
2022/09/28 04:17:08;;;;;;;;;;;;;;;;;;2131999;27;20116;-46
2022/09/28 04:18:09;;;;;;;;;;;;;;;;;;2131996;27;19923;-46
2022/09/28 04:19:10;;;;;;;;;;;;;;;;;;2131976;27;19946;-45
2022/09/28 04:20:11;;;;;;;;;;;;;;;;;;2132166;27;19970;-46
2022/09/28 04:21:12;;;;;;;;;;;;;;;;;;2132158;27;19922;-45
2022/09/28 04:22:13;;;;;;;;;;;;;;;;;;2132382;27;20001;-42
2022/09/28 04:23:14;;;;;;;;;;;;;;;;;;2132172;27;20287;-46
2022/09/28 04:24:15;;;;;;;;;;;;;;;;;;2132072;27;19923;-45
2022/09/28 04:25:15;;;;;;;;;;;;;;;;;;2131913;27;20384;-44
2022/09/28 04:26:16;;;;;;;;;;;;;;;;;;2131967;27;19955;-45
2022/09/28 04:29:57;;;;;;;;;;;;;;;;;;2132274;27;19923;-46
2022/09/28 04:30:58;;;;;;;;;;;;;;;;;;2132370;27;19927;-41
2022/09/28 04:32:00;;;;;;;;;;;;;;;;;;2132040;27;20417;-43
2022/09/28 04:33:01;;;;;;;;;;;;;;;;;;2131999;27;19967;-42
2022/09/28 04:34:01;;;;;;;;;;;;;;;;;;2131997;27;20375;-42
2022/09/28 04:35:02;;;;;;;;;;;;;;;;;;2132160;27;19937;-43
2022/09/28 04:36:03;;;;;;;;;;;;;;;;;;2132031;27;20016;-44
2022/09/28 04:37:04;;;;;;;;;;;;;;;;;;2131933;27;19923;-45
2022/09/28 04:38:05;;;;;;;;;;;;;;;;;;2132015;27;19923;-45
2022/09/28 04:39:06;;;;;;;;;;;;;;;;;;2132014;27;20026;-45
2022/09/28 04:40:06;;;;;;;;;;;;;;;;;;2131948;27;19924;-46
2022/09/28 04:41:07;;;;;;;;;;;;;;;;;;2131936;27;19923;-45
2022/09/28 04:42:08;;;;;;;;;;;;;;;;;;2131838;27;19927;-45
2022/09/28 04:43:09;;;;;;;;;;;;;;;;;;2132017;27;20383;-45
2022/09/28 04:44:10;;;;;;;;;;;;;;;;;;2132063;27;19923;-42
2022/09/28 04:45:11;;;;;;;;;;;;;;;;;;2132032;27;19996;-42
2022/09/28 04:46:12;;;;;;;;;;;;;;;;;;2131869;27;19939;-43
2022/09/28 04:47:13;;;;;;;;;;;;;;;;;;2131882;27;20000;-42
2022/09/28 04:48:14;;;;;;;;;;;;;;;;;;2131862;27;19923;-42
2022/09/28 04:49:14;;;;;;;;;;;;;;;;;;2131896;27;19923;-42
2022/09/28 04:50:15;;;;;;;;;;;;;;;;;;2131972;27;19923;-42
2022/09/28 04:51:16;;;;;;;;;;;;;;;;;;2131981;27;19971;-42
2022/09/28 04:52:17;;;;;;;;;;;;;;;;;;2131932;27;19927;-43
2022/09/28 04:53:18;;;;;;;;;;;;;;;;;;2131810;27;19977;-42
2022/09/28 04:54:19;;;;;;;;;;;;;;;;;;2131901;27;19977;-42
2022/09/28 04:55:20;;;;;;;;;;;;;;;;;;2132039;27;19923;-44
2022/09/28 04:56:21;;;;;;;;;;;;;;;;;;2131757;27;19927;-44
2022/09/28 04:57:22;;;;;;;;;;;;;;;;;;2132089;27;20320;-45
2022/09/28 04:58:23;;;;;;;;;;;;;;;;;;2131905;27;19944;-44
2022/09/28 04:59:24;;;;;;;;;;;;;;;;;;2131805;27;19982;-45
2022/09/28 05:00:25;;;;;;;;;;;;;;;;;;2132421;27;20391;-42
2022/09/28 05:01:26;;;;;;;;;;;;;;;;;;2131706;27;19930;-42
2022/09/28 05:02:28;;;;;;;;;;;;;;;;;;2132337;27;20002;-44
2022/09/28 05:03:29;;;;;;;;;;;;;;;;;;2131903;27;19934;-44
2022/09/28 05:04:30;;;;;;;;;;;;;;;;;;2131956;27;19931;-42
2022/09/28 05:05:30;;;;;;;;;;;;;;;;;;2131763;27;19923;-42
2022/09/28 05:06:31;;;;;;;;;;;;;;;;;;2131778;27;19923;-42
2022/09/28 05:07:32;;;;;;;;;;;;;;;;;;2131897;27;20272;-42
2022/09/28 05:08:34;;;;;;;;;;;;;;;;;;2131802;27;20018;-42
2022/09/28 05:09:34;;;;;;;;;;;;;;;;;;2131916;27;19930;-43
2022/09/28 05:10:39;;;;;;;;;;;;;;;;;;2131780;27;19972;-42
2022/09/28 05:11:40;;;;;;;;;;;;;;;;;;2132924;27;19929;-45
2022/09/28 05:12:41;;;;;;;;;;;;;;;;;;2133417;27;19923;-43
2022/09/28 05:13:42;;;;;;;;;;;;;;;;;;2133507;27;19942;-43
2022/09/28 05:14:43;;;;;;;;;;;;;;;;;;2133270;27;19923;-42
2022/09/28 05:15:44;;;;;;;;;;;;;;;;;;2133351;27;19966;-43
2022/09/28 05:16:45;;;;;;;;;;;;;;;;;;2133368;27;19970;-43
2022/09/28 05:17:46;;;;;;;;;;;;;;;;;;2133253;27;19923;-43
2022/09/28 05:18:47;;;;;;;;;;;;;;;;;;2133619;27;20284;-45
2022/09/28 05:19:48;;;;;;;;;;;;;;;;;;2133344;27;20018;-45
2022/09/28 05:20:49;;;;;;;;;;;;;;;;;;2133375;27;19931;-45
2022/09/28 05:21:50;;;;;;;;;;;;;;;;;;2133200;27;19945;-47
2022/09/28 05:22:51;;;;;;;;;;;;;;;;;;2133330;27;19929;-45
2022/09/28 05:23:54;;;;;;;;;;;;;;;;;;2133202;27;19966;-45
2022/09/28 05:24:57;;;;;;;;;;;;;;;;;;2133071;27;20372;-45
2022/09/28 05:25:57;;;;;;;;;;;;;;;;;;2133282;27;19923;-45
2022/09/28 05:26:58;;;;;;;;;;;;;;;;;;2133229;27;20295;-46
2022/09/28 05:28:00;;;;;;;;;;;;;;;;;;2133256;27;20059;-45
2022/09/28 05:29:01;;;;;;;;;;;;;;;;;;2133625;27;19954;-43
2022/09/28 05:30:02;;;;;;;;;;;;;;;;;;2133161;27;19930;-43
2022/09/28 05:31:03;;;;;;;;;;;;;;;;;;2133244;27;20372;-43
2022/09/28 05:32:04;;;;;;;;;;;;;;;;;;2133244;27;19934;-43
2022/09/28 05:33:05;;;;;;;;;;;;;;;;;;2133149;27;20387;-43
2022/09/28 05:34:06;;;;;;;;;;;;;;;;;;2133200;27;20022;-43
2022/09/28 05:35:07;;;;;;;;;;;;;;;;;;2133152;27;20403;-43
2022/09/28 05:36:07;;;;;;;;;;;;;;;;;;2133365;27;19930;-42
2022/09/28 05:37:08;;;;;;;;;;;;;;;;;;2133251;27;20459;-43
2022/09/28 05:38:09;;;;;;;;;;;;;;;;;;2133043;27;20394;-42
2022/09/28 05:39:10;;;;;;;;;;;;;;;;;;2133195;27;19929;-43
2022/09/28 05:40:11;;;;;;;;;;;;;;;;;;2133143;27;19923;-43
2022/09/28 05:41:12;;;;;;;;;;;;;;;;;;2133184;27;20213;-43
2022/09/28 05:42:12;;;;;;;;;;;;;;;;;;2133039;27;19923;-43
2022/09/28 05:43:13;;;;;;;;;;;;;;;;;;2133336;27;19970;-45
2022/09/28 05:44:14;;;;;;;;;;;;;;;;;;2133200;27;19922;-45
2022/09/28 05:45:15;;;;;;;;;;;;;;;;;;2133277;27;19923;-45
2022/09/28 05:46:16;;;;;;;;;;;;;;;;;;2133099;27;20026;-46
2022/09/28 05:47:17;;;;;;;;;;;;;;;;;;2132949;27;19930;-45
2022/09/28 05:48:18;;;;;;;;;;;;;;;;;;2133107;27;20022;-45
2022/09/28 05:49:18;;;;;;;;;;;;;;;;;;2133105;27;19927;-45
2022/09/28 05:50:19;;;;;;;;;;;;;;;;;;2133244;27;20374;-45
2022/09/28 05:51:20;;;;;;;;;;;;;;;;;;2133234;27;19935;-42
2022/09/28 05:52:21;;;;;;;;;;;;;;;;;;2133218;27;20398;-42
2022/09/28 05:53:22;;;;;;;;;;;;;;;;;;2133061;27;20384;-42
2022/09/28 05:54:23;;;;;;;;;;;;;;;;;;2133240;27;20196;-42
2022/09/28 05:55:23;;;;;;;;;;;;;;;;;;2132955;27;19948;-42
2022/09/28 05:56:24;;;;;;;;;;;;;;;;;;2132965;27;19929;-42
2022/09/28 05:57:25;;;;;;;;;;;;;;;;;;2133215;27;19923;-43
2022/09/28 05:58:26;;;;;;;;;;;;;;;;;;2132941;27;19959;-42
2022/09/28 05:59:29;;;;;;;;;;;;;;;;;;2133063;27;19971;-42
2022/09/28 06:00:30;;;;;;;;;;;;;;;;;;2133207;27;19930;-45
2022/09/28 06:01:30;;;;;;;;;;;;;;;;;;2132957;27;19923;-44
2022/09/28 06:02:31;;;;;;;;;;;;;;;;;;2133097;27;19929;-45
2022/09/28 06:03:32;;;;;;;;;;;;;;;;;;2133126;27;19984;-45
2022/09/28 06:04:33;;;;;;;;;;;;;;;;;;2133090;27;19948;-43
2022/09/28 06:05:35;;;;;;;;;;;;;;;;;;2133109;27;19948;-43
2022/09/28 06:06:37;;;;;;;;;;;;;;;;;;2132882;27;19930;-43
2022/09/28 06:07:37;;;;;;;;;;;;;;;;;;2133146;27;19987;-43
2022/09/28 06:08:41;;;;;;;;;;;;;;;;;;2133091;27;20055;-43
2022/09/28 06:09:42;;;;;;;;;;;;;;;;;;2132936;27;19923;-42
2022/09/28 06:10:43;;;;;;;;;;;;;;;;;;2132973;27;19924;-44
2022/09/28 06:11:44;;;;;;;;;;;;;;;;;;2132581;27;19923;-43
2022/09/28 06:12:46;;;;;;;;;;;;;;;;;;2132970;27;20009;-42
2022/09/28 06:13:47;;;;;;;;;;;;;;;;;;2132899;27;19923;-43
2022/09/28 06:14:48;;;;;;;;;;;;;;;;;;2133046;27;20006;-43
2022/09/28 06:15:49;;;;;;;;;;;;;;;;;;2132943;27;20273;-43
2022/09/28 06:16:49;;;;;;;;;;;;;;;;;;2132814;27;19975;-43
2022/09/28 06:17:51;;;;;;;;;;;;;;;;;;2132947;27;19937;-43
2022/09/28 06:18:51;;;;;;;;;;;;;;;;;;2133082;27;19923;-42
2022/09/28 06:19:52;;;;;;;;;;;;;;;;;;2133019;27;20022;-43
2022/09/28 06:20:53;;;;;;;;;;;;;;;;;;2132654;27;19923;-43
2022/09/28 06:21:54;;;;;;;;;;;;;;;;;;2132923;27;19923;-43
2022/09/28 06:22:55;;;;;;;;;;;;;;;;;;2132782;27;20292;-43
2022/09/28 06:23:55;;;;;;;;;;;;;;;;;;2133161;27;19927;-43
2022/09/28 06:24:56;;;;;;;;;;;;;;;;;;2132796;27;20063;-42
2022/09/28 06:25:57;;;;;;;;;;;;;;;;;;2132804;27;19923;-43
2022/09/28 06:26:58;;;;;;;;;;;;;;;;;;2132774;27;19923;-43
2022/09/28 06:27:59;;;;;;;;;;;;;;;;;;2133018;27;19976;-42
2022/09/28 06:29:00;;;;;;;;;;;;;;;;;;2133171;27;20063;-43
2022/09/28 06:30:01;;;;;;;;;;;;;;;;;;2132750;27;20409;-43
2022/09/28 06:31:02;;;;;;;;;;;;;;;;;;2133014;27;19930;-45
2022/09/28 06:32:02;;;;;;;;;;;;;;;;;;2132732;27;19930;-48
2022/09/28 06:33:03;;;;;;;;;;;;;;;;;;2132736;27;20311;-45
2022/09/28 06:34:04;;;;;;;;;;;;;;;;;;2133075;27;19923;-43
2022/09/28 06:35:05;;;;;;;;;;;;;;;;;;2133138;27;19946;-44
2022/09/28 06:36:06;;;;;;;;;;;;;;;;;;2132778;27;19970;-44
2022/09/28 06:37:07;;;;;;;;;;;;;;;;;;2132640;27;19923;-45
2022/09/28 06:38:08;;;;;;;;;;;;;;;;;;2132797;27;20318;-45
2022/09/28 06:39:09;;;;;;;;;;;;;;;;;;2132865;27;19954;-45
2022/09/28 06:40:10;;;;;;;;;;;;;;;;;;2132749;27;20298;-46
2022/09/28 06:41:11;;;;;;;;;;;;;;;;;;2132697;27;20029;-45
2022/09/28 06:42:12;;;;;;;;;;;;;;;;;;2132769;27;19923;-45
2022/09/28 06:43:13;;;;;;;;;;;;;;;;;;2132746;27;19962;-46
2022/09/28 06:44:14;;;;;;;;;;;;;;;;;;2132741;27;19930;-46
2022/09/28 06:45:18;;;;;;;;;;;;;;;;;;2132720;27;19923;-45
2022/09/28 06:46:19;;;;;;;;;;;;;;;;;;2132646;27;19992;-46
2022/09/28 06:47:20;;;;;;;;;;;;;;;;;;2132642;27;19966;-45
2022/09/28 06:48:21;;;;;;;;;;;;;;;;;;2132827;27;19927;-46
2022/09/28 06:49:22;;;;;;;;;;;;;;;;;;2132873;27;19977;-45
2022/09/28 06:50:23;;;;;;;;;;;;;;;;;;2132967;27;19923;-44
2022/09/28 06:51:24;;;;;;;;;;;;;;;;;;2132881;27;20372;-45
2022/09/28 06:52:25;;;;;;;;;;;;;;;;;;2132638;27;20368;-46
2022/09/28 06:53:27;;;;;;;;;;;;;;;;;;2132668;27;19923;-45
2022/09/28 06:54:27;;;;;;;;;;;;;;;;;;2132706;27;20023;-45
2022/09/28 06:55:28;;;;;;;;;;;;;;;;;;2132874;27;20552;-45
2022/09/28 06:56:29;;;;;;;;;;;;;;;;;;2132526;27;19927;-46
2022/09/28 06:57:33;;;;;;;;;;;;;;;;;;2133215;27;20214;-42
2022/09/28 06:58:34;;;;;;;;;;;;;;;;;;2132645;27;19929;-42
2022/09/28 06:59:35;;;;;;;;;;;;;;;;;;2132630;27;20017;-43
2022/09/28 07:00:35;;;;;;;;;;;;;;;;;;2132633;27;19966;-43